Greenville, New Jersey
Current Conditions -  °F | °C
As of 3:51 PM on Thursday 20 Nov 2014 (Local Time) from KEWR Reporting Station
Few Clouds Few Clouds  
Wind Chill: 37°   Ceiling: Unl
Heat Index: 45°   Visibility: 10mi
Dew Point: 20°   Wind: 22mph
Humidity: 37%   Direction: 250°WSW
Pressure: 29.86"   Gusts: 32mph
Location:  40.696°N, 74.0853°W
Report Text: KEWR 202051Z 25019G28KT 10SM FEW060 07/M07 A2986 RMK AO2 PK WND 26028/2047 SLP110 T00721067 55004 $
Loading
Personal Weather Stations






























Interactive Weather Map New forecast layout! Learn more

10-Day Weather Forecast

Advertisements
Track Severe Weather on mobile